sensor_id;sensor_type;location;lat;lon;timestamp;pressure;altitude;pressure_sealevel;temperature;humidity
75157;BME280;63736;50.076;8.198;2022-10-28T00:00:22;100188.75;;;13.55;100.00
75157;BME280;63736;50.076;8.198;2022-10-28T00:02:47;100193.38;;;13.53;100.00
75157;BME280;63736;50.076;8.198;2022-10-28T00:05:12;100188.28;;;13.50;100.00
75157;BME280;63736;50.076;8.198;2022-10-28T00:07:38;100189.41;;;13.48;100.00
75157;BME280;63736;50.076;8.198;2022-10-28T00:10:03;100191.50;;;13.44;100.00
75157;BME280;63736;50.076;8.198;2022-10-28T00:12:29;100186.41;;;13.41;100.00
75157;BME280;63736;50.076;8.198;2022-10-28T00:14:54;100178.34;;;13.41;100.00
75157;BME280;63736;50.076;8.198;2022-10-28T00:17:19;100183.72;;;13.41;100.00
75157;BME280;63736;50.076;8.198;2022-10-28T00:19:45;100182.84;;;13.41;100.00
75157;BME280;63736;50.076;8.198;2022-10-28T00:22:10;100181.03;;;13.41;100.00
75157;BME280;63736;50.076;8.198;2022-10-28T00:24:35;100185.97;;;13.46;100.00
75157;BME280;63736;50.076;8.198;2022-10-28T00:27:00;100193.94;;;13.47;100.00
75157;BME280;63736;50.076;8.198;2022-10-28T00:29:26;100199.03;;;13.50;100.00
75157;BME280;63736;50.076;8.198;2022-10-28T00:31:51;100194.63;;;13.49;100.00
75157;BME280;63736;50.076;8.198;2022-10-28T00:34:18;100192.69;;;13.51;100.00
75157;BME280;63736;50.076;8.198;2022-10-28T00:36:46;100193.53;;;13.52;100.00
75157;BME280;63736;50.076;8.198;2022-10-28T00:39:13;100192.41;;;13.54;100.00
75157;BME280;63736;50.076;8.198;2022-10-28T00:41:46;100192.03;;;13.59;100.00
75157;BME280;63736;50.076;8.198;2022-10-28T00:52:54;100183.13;;;13.90;100.00
75157;BME280;63736;50.076;8.198;2022-10-28T00:55:20;100175.66;;;13.93;100.00
75157;BME280;63736;50.076;8.198;2022-10-28T00:57:46;100168.03;;;13.98;100.00
75157;BME280;63736;50.076;8.198;2022-10-28T01:00:12;100167.75;;;14.01;100.00
75157;BME280;63736;50.076;8.198;2022-10-28T01:02:46;100167.22;;;14.08;100.00
75157;BME280;63736;50.076;8.198;2022-10-28T01:05:14;100177.69;;;14.11;100.00
75157;BME280;63736;50.076;8.198;2022-10-28T01:07:41;100178.56;;;14.11;100.00
75157;BME280;63736;50.076;8.198;2022-10-28T01:10:07;100183.38;;;14.17;100.00
75157;BME280;63736;50.076;8.198;2022-10-28T01:15:38;100183.03;;;14.32;100.00
75157;BME280;63736;50.076;8.198;2022-10-28T01:23:22;100194.75;;;14.31;100.00
75157;BME280;63736;50.076;8.198;2022-10-28T01:26:22;100186.53;;;14.32;100.00
75157;BME280;63736;50.076;8.198;2022-10-28T01:31:43;100180.72;;;14.27;100.00
75157;BME280;63736;50.076;8.198;2022-10-28T01:34:33;100176.47;;;14.25;100.00
75157;BME280;63736;50.076;8.198;2022-10-28T01:37:13;100166.72;;;14.24;100.00
75157;BME280;63736;50.076;8.198;2022-10-28T01:39:48;100165.88;;;14.23;100.00
75157;BME280;63736;50.076;8.198;2022-10-28T01:42:28;100168.28;;;14.26;100.00
75157;BME280;63736;50.076;8.198;2022-10-28T01:45:20;100165.31;;;14.29;100.00
75157;BME280;63736;50.076;8.198;2022-10-28T01:47:59;100166.31;;;14.28;100.00
75157;BME280;63736;50.076;8.198;2022-10-28T01:52:56;100160.69;;;14.41;100.00
75157;BME280;63736;50.076;8.198;2022-10-28T01:55:25;100149.66;;;14.44;100.00
75157;BME280;63736;50.076;8.198;2022-10-28T01:57:54;100151.22;;;14.47;100.00
75157;BME280;63736;50.076;8.198;2022-10-28T02:00:21;100157.16;;;14.50;100.00
75157;BME280;63736;50.076;8.198;2022-10-28T02:02:48;100153.19;;;14.54;100.00
75157;BME280;63736;50.076;8.198;2022-10-28T02:05:46;100148.56;;;14.57;100.00
75157;BME280;63736;50.076;8.198;2022-10-28T02:08:26;100148.56;;;14.57;100.00
75157;BME280;63736;50.076;8.198;2022-10-28T02:16:47;100152.06;;;14.57;100.00
75157;BME280;63736;50.076;8.198;2022-10-28T02:22:39;100136.78;;;14.58;100.00
75157;BME280;63736;50.076;8.198;2022-10-28T02:25:16;100134.97;;;14.58;100.00
75157;BME280;63736;50.076;8.198;2022-10-28T02:27:52;100131.97;;;14.61;100.00
75157;BME280;63736;50.076;8.198;2022-10-28T02:30:23;100132.97;;;14.60;100.00
75157;BME280;63736;50.076;8.198;2022-10-28T02:32:54;100137.50;;;14.60;100.00
75157;BME280;63736;50.076;8.198;2022-10-28T02:35:29;100134.81;;;14.60;100.00
75157;BME280;63736;50.076;8.198;2022-10-28T02:37:59;100136.66;;;14.59;100.00
75157;BME280;63736;50.076;8.198;2022-10-28T02:40:27;100129.59;;;14.58;100.00
75157;BME280;63736;50.076;8.198;2022-10-28T02:42:58;100123.22;;;14.59;100.00
75157;BME280;63736;50.076;8.198;2022-10-28T02:45:36;100124.78;;;14.62;100.00
75157;BME280;63736;50.076;8.198;2022-10-28T02:48:08;100116.56;;;14.63;100.00
75157;BME280;63736;50.076;8.198;2022-10-28T02:50:38;100122.66;;;14.65;100.00
75157;BME280;63736;50.076;8.198;2022-10-28T02:53:14;100124.09;;;14.69;100.00
75157;BME280;63736;50.076;8.198;2022-10-28T02:55:42;100108.53;;;14.73;100.00
75157;BME280;63736;50.076;8.198;2022-10-28T02:58:09;100107.25;;;14.77;100.00
75157;BME280;63736;50.076;8.198;2022-10-28T03:00:34;100103.16;;;14.83;100.00
75157;BME280;63736;50.076;8.198;2022-10-28T03:03:00;100117.72;;;14.90;100.00
75157;BME280;63736;50.076;8.198;2022-10-28T03:05:25;100118.13;;;14.95;100.00
75157;BME280;63736;50.076;8.198;2022-10-28T03:07:50;100105.25;;;14.99;100.00
75157;BME280;63736;50.076;8.198;2022-10-28T03:10:16;100114.47;;;15.06;100.00
75157;BME280;63736;50.076;8.198;2022-10-28T03:12:41;100110.66;;;15.09;100.00
75157;BME280;63736;50.076;8.198;2022-10-28T03:15:07;100107.50;;;15.13;100.00
75157;BME280;63736;50.076;8.198;2022-10-28T03:17:32;100111.06;;;15.14;100.00
75157;BME280;63736;50.076;8.198;2022-10-28T03:19:58;100120.81;;;15.15;100.00
75157;BME280;63736;50.076;8.198;2022-10-28T03:22:23;100112.63;;;15.16;100.00
75157;BME280;63736;50.076;8.198;2022-10-28T03:24:48;100118.25;;;15.13;100.00
75157;BME280;63736;50.076;8.198;2022-10-28T03:27:13;100112.19;;;15.11;100.00
75157;BME280;63736;50.076;8.198;2022-10-28T03:29:39;100090.94;;;15.08;100.00
75157;BME280;63736;50.076;8.198;2022-10-28T03:32:04;100088.81;;;15.12;100.00
75157;BME280;63736;50.076;8.198;2022-10-28T03:34:29;100113.88;;;15.12;100.00
75157;BME280;63736;50.076;8.198;2022-10-28T03:36:55;100132.84;;;15.11;100.00
75157;BME280;63736;50.076;8.198;2022-10-28T03:39:20;100129.47;;;15.09;100.00
75157;BME280;63736;50.076;8.198;2022-10-28T03:41:45;100125.22;;;15.06;100.00
75157;BME280;63736;50.076;8.198;2022-10-28T03:44:10;100131.03;;;15.01;100.00
75157;BME280;63736;50.076;8.198;2022-10-28T03:46:36;100129.47;;;14.99;100.00
75157;BME280;63736;50.076;8.198;2022-10-28T03:49:01;100136.81;;;14.97;100.00
75157;BME280;63736;50.076;8.198;2022-10-28T03:51:26;100125.38;;;14.95;100.00
75157;BME280;63736;50.076;8.198;2022-10-28T03:53:52;100138.09;;;14.93;100.00
75157;BME280;63736;50.076;8.198;2022-10-28T03:56:17;100119.41;;;14.91;100.00
75157;BME280;63736;50.076;8.198;2022-10-28T03:58:42;100121.28;;;14.91;100.00
75157;BME280;63736;50.076;8.198;2022-10-28T04:01:07;100112.34;;;14.90;100.00
75157;BME280;63736;50.076;8.198;2022-10-28T04:03:33;100114.19;;;14.90;100.00
75157;BME280;63736;50.076;8.198;2022-10-28T04:05:58;100108.09;;;14.87;100.00
75157;BME280;63736;50.076;8.198;2022-10-28T04:08:23;100097.47;;;14.86;100.00
75157;BME280;63736;50.076;8.198;2022-10-28T04:10:49;100104.88;;;14.84;100.00
75157;BME280;63736;50.076;8.198;2022-10-28T04:13:15;100105.84;;;14.83;100.00
75157;BME280;63736;50.076;8.198;2022-10-28T04:15:40;100103.41;;;14.80;100.00
75157;BME280;63736;50.076;8.198;2022-10-28T04:18:06;100104.56;;;14.77;100.00
75157;BME280;63736;50.076;8.198;2022-10-28T04:20:31;100103.56;;;14.78;100.00
75157;BME280;63736;50.076;8.198;2022-10-28T04:22:56;100105.13;;;14.81;100.00
75157;BME280;63736;50.076;8.198;2022-10-28T04:25:23;100097.78;;;14.83;100.00
75157;BME280;63736;50.076;8.198;2022-10-28T04:27:48;100101.31;;;14.83;100.00
75157;BME280;63736;50.076;8.198;2022-10-28T04:30:14;100104.00;;;14.83;100.00
75157;BME280;63736;50.076;8.198;2022-10-28T04:32:40;100095.25;;;14.81;100.00
75157;BME280;63736;50.076;8.198;2022-10-28T04:35:06;100089.28;;;14.78;100.00
75157;BME280;63736;50.076;8.198;2022-10-28T04:37:31;100084.31;;;14.73;100.00
75157;BME280;63736;50.076;8.198;2022-10-28T04:39:56;100097.91;;;14.72;100.00
75157;BME280;63736;50.076;8.198;2022-10-28T04:42:22;100091.81;;;14.69;100.00
75157;BME280;63736;50.076;8.198;2022-10-28T04:44:48;100094.81;;;14.66;100.00
75157;BME280;63736;50.076;8.198;2022-10-28T04:47:13;100093.25;;;14.64;100.00
75157;BME280;63736;50.076;8.198;2022-10-28T04:49:38;100093.78;;;14.58;100.00
75157;BME280;63736;50.076;8.198;2022-10-28T04:52:04;100083.31;;;14.54;100.00
75157;BME280;63736;50.076;8.198;2022-10-28T04:54:29;100081.03;;;14.50;100.00
75157;BME280;63736;50.076;8.198;2022-10-28T04:56:54;100086.25;;;14.42;100.00
75157;BME280;63736;50.076;8.198;2022-10-28T04:59:20;100086.13;;;14.33;100.00
75157;BME280;63736;50.076;8.198;2022-10-28T05:01:45;100079.59;;;14.26;100.00
75157;BME280;63736;50.076;8.198;2022-10-28T05:04:10;100088.34;;;14.18;100.00
75157;BME280;63736;50.076;8.198;2022-10-28T05:06:36;100087.34;;;14.10;100.00
75157;BME280;63736;50.076;8.198;2022-10-28T05:09:02;100076.59;;;14.00;100.00
75157;BME280;63736;50.076;8.198;2022-10-28T05:11:27;100078.25;;;13.91;100.00
75157;BME280;63736;50.076;8.198;2022-10-28T05:13:52;100078.94;;;13.83;100.00
75157;BME280;63736;50.076;8.198;2022-10-28T05:16:18;100076.66;;;13.79;100.00
75157;BME280;63736;50.076;8.198;2022-10-28T05:18:43;100075.50;;;13.71;100.00
75157;BME280;63736;50.076;8.198;2022-10-28T05:21:09;100076.03;;;13.65;100.00
75157;BME280;63736;50.076;8.198;2022-10-28T05:23:34;100071.78;;;13.63;100.00
75157;BME280;63736;50.076;8.198;2022-10-28T05:25:59;100073.50;;;13.64;100.00
75157;BME280;63736;50.076;8.198;2022-10-28T05:28:25;100061.19;;;13.61;100.00
75157;BME280;63736;50.076;8.198;2022-10-28T05:30:50;100072.22;;;13.58;100.00
75157;BME280;63736;50.076;8.198;2022-10-28T05:33:15;100079.69;;;13.54;100.00
75157;BME280;63736;50.076;8.198;2022-10-28T05:35:41;100072.88;;;13.50;100.00
75157;BME280;63736;50.076;8.198;2022-10-28T05:38:06;100065.09;;;13.47;100.00
75157;BME280;63736;50.076;8.198;2022-10-28T05:40:31;100065.09;;;13.47;100.00
75157;BME280;63736;50.076;8.198;2022-10-28T05:43:00;100059.59;;;13.49;100.00
75157;BME280;63736;50.076;8.198;2022-10-28T05:45:26;100068.50;;;13.49;100.00
75157;BME280;63736;50.076;8.198;2022-10-28T05:47:51;100063.13;;;13.49;100.00
75157;BME280;63736;50.076;8.198;2022-10-28T05:50:18;100059.31;;;13.52;100.00
75157;BME280;63736;50.076;8.198;2022-10-28T05:52:52;100063.28;;;13.58;100.00
75157;BME280;63736;50.076;8.198;2022-10-28T05:55:19;100070.50;;;13.57;100.00
75157;BME280;63736;50.076;8.198;2022-10-28T05:57:49;100069.38;;;13.60;100.00
75157;BME280;63736;50.076;8.198;2022-10-28T06:00:16;100064.84;;;13.60;100.00
75157;BME280;63736;50.076;8.198;2022-10-28T06:02:42;100073.63;;;13.62;100.00
75157;BME280;63736;50.076;8.198;2022-10-28T06:05:08;100073.25;;;13.67;100.00
75157;BME280;63736;50.076;8.198;2022-10-28T06:07:34;100073.25;;;13.67;100.00
75157;BME280;63736;50.076;8.198;2022-10-28T06:10:00;100083.69;;;13.70;100.00
75157;BME280;63736;50.076;8.198;2022-10-28T06:12:25;100078.19;;;13.71;100.00
75157;BME280;63736;50.076;8.198;2022-10-28T06:14:51;100079.75;;;13.74;100.00
75157;BME280;63736;50.076;8.198;2022-10-28T06:17:16;100077.78;;;13.76;100.00
75157;BME280;63736;50.076;8.198;2022-10-28T06:19:41;100083.84;;;13.78;100.00
75157;BME280;63736;50.076;8.198;2022-10-28T06:22:07;100091.53;;;13.83;100.00
75157;BME280;63736;50.076;8.198;2022-10-28T06:24:32;100086.84;;;13.85;100.00
75157;BME280;63736;50.076;8.198;2022-10-28T06:26:57;100080.25;;;13.89;100.00
75157;BME280;63736;50.076;8.198;2022-10-28T06:29:22;100079.56;;;13.97;100.00
75157;BME280;63736;50.076;8.198;2022-10-28T06:31:48;100086.94;;;14.04;100.00
75157;BME280;63736;50.076;8.198;2022-10-28T06:34:13;100086.66;;;14.17;100.00
75157;BME280;63736;50.076;8.198;2022-10-28T06:36:38;100093.31;;;14.23;100.00
75157;BME280;63736;50.076;8.198;2022-10-28T06:39:04;100090.19;;;14.28;100.00
75157;BME280;63736;50.076;8.198;2022-10-28T06:41:30;100094.44;;;14.30;100.00
75157;BME280;63736;50.076;8.198;2022-10-28T06:43:55;100098.00;;;14.31;100.00
75157;BME280;63736;50.076;8.198;2022-10-28T06:46:20;100103.09;;;14.34;100.00
75157;BME280;63736;50.076;8.198;2022-10-28T06:48:46;100100.16;;;14.37;100.00
75157;BME280;63736;50.076;8.198;2022-10-28T06:51:11;100106.22;;;14.39;100.00
75157;BME280;63736;50.076;8.198;2022-10-28T06:53:36;100108.34;;;14.45;100.00
75157;BME280;63736;50.076;8.198;2022-10-28T06:56:02;100101.56;;;14.51;100.00
75157;BME280;63736;50.076;8.198;2022-10-28T06:58:27;100108.34;;;14.55;100.00
75157;BME280;63736;50.076;8.198;2022-10-28T07:00:53;100109.50;;;14.62;100.00
75157;BME280;63736;50.076;8.198;2022-10-28T07:03:18;100111.66;;;14.68;100.00
75157;BME280;63736;50.076;8.198;2022-10-28T07:05:44;100105.69;;;14.75;100.00
75157;BME280;63736;50.076;8.198;2022-10-28T07:08:11;100112.22;;;14.82;100.00
75157;BME280;63736;50.076;8.198;2022-10-28T07:10:36;100117.72;;;14.90;100.00
75157;BME280;63736;50.076;8.198;2022-10-28T07:13:02;100114.31;;;14.98;100.00
75157;BME280;63736;50.076;8.198;2022-10-28T07:15:27;100107.38;;;15.05;100.00
75157;BME280;63736;50.076;8.198;2022-10-28T07:17:53;100105.53;;;15.15;100.00
75157;BME280;63736;50.076;8.198;2022-10-28T07:20:19;100107.75;;;15.30;100.00
75157;BME280;63736;50.076;8.198;2022-10-28T07:22:44;100106.00;;;15.48;100.00
75157;BME280;63736;50.076;8.198;2022-10-28T07:25:09;100111.03;;;15.81;100.00
75157;BME280;63736;50.076;8.198;2022-10-28T07:27:34;100098.31;;;16.47;100.00
75157;BME280;63736;50.076;8.198;2022-10-28T07:30:00;100106.69;;;17.42;100.00
75157;BME280;63736;50.076;8.198;2022-10-28T07:32:25;100106.94;;;18.35;100.00
75157;BME280;63736;50.076;8.198;2022-10-28T07:34:50;100104.03;;;19.12;100.00
75157;BME280;63736;50.076;8.198;2022-10-28T07:37:16;100103.50;;;19.25;100.00
75157;BME280;63736;50.076;8.198;2022-10-28T07:39:41;100109.41;;;19.04;100.00
75157;BME280;63736;50.076;8.198;2022-10-28T07:42:06;100113.09;;;18.78;100.00
75157;BME280;63736;50.076;8.198;2022-10-28T07:44:31;100110.22;;;18.55;100.00
75157;BME280;63736;50.076;8.198;2022-10-28T07:46:57;100122.66;;;18.31;100.00
75157;BME280;63736;50.076;8.198;2022-10-28T07:49:22;100116.53;;;18.12;100.00
75157;BME280;63736;50.076;8.198;2022-10-28T07:51:49;100118.50;;;18.02;100.00
75157;BME280;63736;50.076;8.198;2022-10-28T07:54:14;100120.63;;;17.90;100.00
75157;BME280;63736;50.076;8.198;2022-10-28T07:56:39;100119.72;;;17.81;100.00
75157;BME280;63736;50.076;8.198;2022-10-28T07:59:05;100114.63;;;17.70;100.00
75157;BME280;63736;50.076;8.198;2022-10-28T08:01:30;100123.84;;;17.59;100.00
75157;BME280;63736;50.076;8.198;2022-10-28T08:03:55;100127.50;;;17.50;100.00
75157;BME280;63736;50.076;8.198;2022-10-28T08:06:21;100116.50;;;17.43;100.00
75157;BME280;63736;50.076;8.198;2022-10-28T08:08:48;100123.53;;;17.36;100.00
75157;BME280;63736;50.076;8.198;2022-10-28T08:11:18;100122.16;;;17.32;100.00
75157;BME280;63736;50.076;8.198;2022-10-28T08:13:45;100125.50;;;17.26;100.00
75157;BME280;63736;50.076;8.198;2022-10-28T08:16:11;100124.75;;;17.15;100.00
75157;BME280;63736;50.076;8.198;2022-10-28T08:18:37;100127.91;;;17.11;100.00
75157;BME280;63736;50.076;8.198;2022-10-28T08:21:05;100133.63;;;17.08;100.00
75157;BME280;63736;50.076;8.198;2022-10-28T08:23:31;100132.09;;;17.05;100.00
75157;BME280;63736;50.076;8.198;2022-10-28T08:25:57;100134.78;;;17.05;100.00
75157;BME280;63736;50.076;8.198;2022-10-28T08:28:22;100136.47;;;17.06;100.00
75157;BME280;63736;50.076;8.198;2022-10-28T08:30:48;100137.31;;;17.07;100.00
75157;BME280;63736;50.076;8.198;2022-10-28T08:33:14;100144.41;;;17.08;100.00
75157;BME280;63736;50.076;8.198;2022-10-28T08:35:39;100138.69;;;17.11;100.00
75157;BME280;63736;50.076;8.198;2022-10-28T08:38:05;100138.38;;;17.14;100.00
75157;BME280;63736;50.076;8.198;2022-10-28T08:40:36;100136.22;;;17.17;100.00
75157;BME280;63736;50.076;8.198;2022-10-28T08:46:03;100128.41;;;17.32;100.00
75157;BME280;63736;50.076;8.198;2022-10-28T08:48:34;100127.09;;;17.37;100.00
75157;BME280;63736;50.076;8.198;2022-10-28T08:51:07;100128.00;;;17.45;100.00
75157;BME280;63736;50.076;8.198;2022-10-28T08:53:38;100128.56;;;17.57;100.00
75157;BME280;63736;50.076;8.198;2022-10-28T08:56:39;100127.34;;;17.78;100.00
75157;BME280;63736;50.076;8.198;2022-10-28T08:59:05;100131.25;;;18.18;100.00
75157;BME280;63736;50.076;8.198;2022-10-28T09:01:41;100125.97;;;18.76;100.00
75157;BME280;63736;50.076;8.198;2022-10-28T09:06:47;100131.63;;;20.91;100.00
75157;BME280;63736;50.076;8.198;2022-10-28T09:09:19;100127.75;;;22.06;100.00
75157;BME280;63736;50.076;8.198;2022-10-28T09:12:09;100129.28;;;22.82;94.58
75157;BME280;63736;50.076;8.198;2022-10-28T09:14:50;100119.19;;;22.76;91.58
75157;BME280;63736;50.076;8.198;2022-10-28T09:17:35;100124.94;;;22.88;91.61
75157;BME280;63736;50.076;8.198;2022-10-28T09:20:13;100127.88;;;22.86;90.52
75157;BME280;63736;50.076;8.198;2022-10-28T09:22:57;100122.31;;;22.80;93.38
75157;BME280;63736;50.076;8.198;2022-10-28T09:25:38;100123.50;;;22.49;92.79
75157;BME280;63736;50.076;8.198;2022-10-28T09:28:17;100120.09;;;22.32;94.73
75157;BME280;63736;50.076;8.198;2022-10-28T09:35:51;100109.50;;;21.70;97.07
75157;BME280;63736;50.076;8.198;2022-10-28T09:38:33;100122.00;;;21.41;99.57
75157;BME280;63736;50.076;8.198;2022-10-28T09:41:03;100121.31;;;21.24;100.00
75157;BME280;63736;50.076;8.198;2022-10-28T09:43:33;100126.53;;;21.11;100.00
75157;BME280;63736;50.076;8.198;2022-10-28T09:46:07;100124.44;;;20.98;100.00
75157;BME280;63736;50.076;8.198;2022-10-28T09:48:41;100131.44;;;20.92;100.00
75157;BME280;63736;50.076;8.198;2022-10-28T09:52:00;100134.13;;;20.92;100.00
75157;BME280;63736;50.076;8.198;2022-10-28T09:54:00;100128.25;;;20.89;100.00
75157;BME280;63736;50.076;8.198;2022-10-28T09:56:27;100126.38;;;20.89;100.00
75157;BME280;63736;50.076;8.198;2022-10-28T09:58:56;100125.69;;;20.87;100.00
75157;BME280;63736;50.076;8.198;2022-10-28T10:01:22;100122.84;;;20.80;100.00
75157;BME280;63736;50.076;8.198;2022-10-28T10:03:49;100127.66;;;20.78;100.00
75157;BME280;63736;50.076;8.198;2022-10-28T10:06:25;100131.19;;;20.79;100.00
75157;BME280;63736;50.076;8.198;2022-10-28T10:08:54;100133.72;;;20.80;100.00
75157;BME280;63736;50.076;8.198;2022-10-28T10:13:51;100131.44;;;20.92;99.99
75157;BME280;63736;50.076;8.198;2022-10-28T10:16:30;100131.91;;;20.96;100.00
75157;BME280;63736;50.076;8.198;2022-10-28T10:19:00;100125.38;;;21.05;100.00
75157;BME280;63736;50.076;8.198;2022-10-28T10:21:49;100126.66;;;21.18;99.65
75157;BME280;63736;50.076;8.198;2022-10-28T10:24:35;100120.78;;;21.29;97.38
75157;BME280;63736;50.076;8.198;2022-10-28T10:29:35;100121.56;;;21.15;95.69
75157;BME280;63736;50.076;8.198;2022-10-28T10:32:17;100115.28;;;21.14;96.50
75157;BME280;63736;50.076;8.198;2022-10-28T10:34:49;100111.56;;;21.15;96.84
75157;BME280;63736;50.076;8.198;2022-10-28T10:37:19;100116.25;;;21.21;97.57
75157;BME280;63736;50.076;8.198;2022-10-28T10:39:57;100108.03;;;21.29;97.75
75157;BME280;63736;50.076;8.198;2022-10-28T10:42:23;100101.38;;;21.32;96.63
75157;BME280;63736;50.076;8.198;2022-10-28T10:44:58;100102.50;;;21.38;95.18
75157;BME280;63736;50.076;8.198;2022-10-28T10:47:25;100103.16;;;21.40;95.68
75157;BME280;63736;50.076;8.198;2022-10-28T10:49:50;100102.25;;;21.48;95.61
75157;BME280;63736;50.076;8.198;2022-10-28T10:52:21;100097.44;;;21.50;94.43
75157;BME280;63736;50.076;8.198;2022-10-28T10:55:02;100102.25;;;21.48;94.73
75157;BME280;63736;50.076;8.198;2022-10-28T10:57:29;100101.03;;;21.50;95.35
75157;BME280;63736;50.076;8.198;2022-10-28T10:59:56;100099.25;;;21.57;96.22
75157;BME280;63736;50.076;8.198;2022-10-28T11:02:25;100098.16;;;21.67;94.67
75157;BME280;63736;50.076;8.198;2022-10-28T11:04:54;100090.25;;;21.72;91.64
75157;BME280;63736;50.076;8.198;2022-10-28T11:07:21;100089.44;;;21.71;91.05
75157;BME280;63736;50.076;8.198;2022-10-28T11:09:48;100086.50;;;21.73;91.88
75157;BME280;63736;50.076;8.198;2022-10-28T11:14:53;100085.22;;;21.69;91.61
75157;BME280;63736;50.076;8.198;2022-10-28T11:17:27;100071.63;;;21.69;92.87
75157;BME280;63736;50.076;8.198;2022-10-28T11:19:55;100077.06;;;21.69;92.76
75157;BME280;63736;50.076;8.198;2022-10-28T11:30:03;100053.59;;;21.53;94.04
75157;BME280;63736;50.076;8.198;2022-10-28T11:32:48;100052.84;;;21.44;91.92
75157;BME280;63736;50.076;8.198;2022-10-28T11:35:41;100054.88;;;21.42;93.07
75157;BME280;63736;50.076;8.198;2022-10-28T11:41:17;100052.13;;;21.65;92.69
75157;BME280;63736;50.076;8.198;2022-10-28T11:43:53;100043.97;;;21.80;92.49
75157;BME280;63736;50.076;8.198;2022-10-28T11:46:37;100050.78;;;21.91;90.08
75157;BME280;63736;50.076;8.198;2022-10-28T11:49:37;100050.03;;;21.97;89.83
75157;BME280;63736;50.076;8.198;2022-10-28T11:55:27;100043.75;;;22.18;86.33
75157;BME280;63736;50.076;8.198;2022-10-28T11:58:02;100035.59;;;22.18;86.11
75157;BME280;63736;50.076;8.198;2022-10-28T12:00:39;100035.31;;;22.28;86.07
75157;BME280;63736;50.076;8.198;2022-10-28T12:06:02;100031.91;;;22.41;85.91
75157;BME280;63736;50.076;8.198;2022-10-28T12:09:07;100032.94;;;22.40;84.76
75157;BME280;63736;50.076;8.198;2022-10-28T12:14:17;100017.75;;;22.31;86.07
75157;BME280;63736;50.076;8.198;2022-10-28T12:16:55;100025.44;;;22.27;86.77
75157;BME280;63736;50.076;8.198;2022-10-28T12:19:28;100026.22;;;22.21;87.09
75157;BME280;63736;50.076;8.198;2022-10-28T12:22:33;100022.19;;;22.17;87.87
75157;BME280;63736;50.076;8.198;2022-10-28T12:25:05;100019.22;;;22.11;88.66
75157;BME280;63736;50.076;8.198;2022-10-28T12:27:40;100016.88;;;22.08;89.03
75157;BME280;63736;50.076;8.198;2022-10-28T12:30:20;100013.97;;;22.10;89.28
75157;BME280;63736;50.076;8.198;2022-10-28T12:32:51;100006.63;;;22.10;89.79
75157;BME280;63736;50.076;8.198;2022-10-28T12:35:23;100008.59;;;22.17;90.20
75157;BME280;63736;50.076;8.198;2022-10-28T12:38:02;100004.25;;;22.22;90.05
75157;BME280;63736;50.076;8.198;2022-10-28T12:40:43;99999.66;;;22.23;89.58
75157;BME280;63736;50.076;8.198;2022-10-28T12:44:01;99999.19;;;22.19;88.75
75157;BME280;63736;50.076;8.198;2022-10-28T12:46:16;99993.31;;;22.16;89.41
75157;BME280;63736;50.076;8.198;2022-10-28T12:48:47;100002.69;;;22.13;89.53
75157;BME280;63736;50.076;8.198;2022-10-28T12:51:35;100006.00;;;22.08;89.94
75157;BME280;63736;50.076;8.198;2022-10-28T12:54:20;100005.28;;;22.00;90.29
75157;BME280;63736;50.076;8.198;2022-10-28T12:56:51;100008.69;;;21.87;90.79
75157;BME280;63736;50.076;8.198;2022-10-28T12:59:32;100002.31;;;21.79;90.97
75157;BME280;63736;50.076;8.198;2022-10-28T13:02:00;99997.81;;;21.72;92.16
75157;BME280;63736;50.076;8.198;2022-10-28T13:04:27;100005.16;;;21.71;92.57
75157;BME280;63736;50.076;8.198;2022-10-28T13:07:16;100006.53;;;21.82;92.91
75157;BME280;63736;50.076;8.198;2022-10-28T13:09:56;100001.00;;;21.90;92.52
75157;BME280;63736;50.076;8.198;2022-10-28T13:12:49;100000.66;;;22.00;91.69
75157;BME280;63736;50.076;8.198;2022-10-28T13:15:44;100007.63;;;22.24;90.55
75157;BME280;63736;50.076;8.198;2022-10-28T13:23:28;99993.13;;;22.60;87.85
75157;BME280;63736;50.076;8.198;2022-10-28T13:26:05;99995.25;;;22.65;87.56
75157;BME280;63736;50.076;8.198;2022-10-28T13:28:44;99990.66;;;22.66;87.36
75157;BME280;63736;50.076;8.198;2022-10-28T13:31:10;99996.69;;;22.61;87.58
75157;BME280;63736;50.076;8.198;2022-10-28T13:33:37;99985.59;;;22.63;87.57
75157;BME280;63736;50.076;8.198;2022-10-28T13:36:30;99978.09;;;22.65;86.94
75157;BME280;63736;50.076;8.198;2022-10-28T13:39:01;99983.72;;;22.63;87.71
75157;BME280;63736;50.076;8.198;2022-10-28T13:41:39;99974.34;;;22.66;87.62
75157;BME280;63736;50.076;8.198;2022-10-28T13:46:58;99977.59;;;22.83;86.17
75157;BME280;63736;50.076;8.198;2022-10-28T13:49:34;99963.56;;;22.86;85.44
75157;BME280;63736;50.076;8.198;2022-10-28T14:02:27;99974.44;;;22.79;85.74
75157;BME280;63736;50.076;8.198;2022-10-28T14:05:03;99989.06;;;22.78;85.46
75157;BME280;63736;50.076;8.198;2022-10-28T14:07:31;99977.31;;;22.71;86.02
75157;BME280;63736;50.076;8.198;2022-10-28T14:10:11;99967.56;;;22.61;85.83
75157;BME280;63736;50.076;8.198;2022-10-28T14:12:43;99980.88;;;22.50;86.92
75157;BME280;63736;50.076;8.198;2022-10-28T14:17:39;99988.59;;;22.24;88.96
75157;BME280;63736;50.076;8.198;2022-10-28T14:20:24;99994.53;;;22.13;88.49
75157;BME280;63736;50.076;8.198;2022-10-28T14:22:52;99986.63;;;21.97;89.43
75157;BME280;63736;50.076;8.198;2022-10-28T14:48:10;100004.06;;;20.98;98.57
75157;BME280;63736;50.076;8.198;2022-10-28T14:50:41;99995.19;;;20.89;99.80